Time;durP1;ratioP1;P1;durP2;ratioP2;P2;SDS_P1;SDS_P2;PMS_P1;PMS_P2;Temp;Humidity;BMP_temperature;BMP_pressure;BME280_temperature;BME280_humidity;BME280_pressure;Samples;Min_cycle;Max_cycle;Signal;HPM_P1;HPM_P2
2023/08/05 00:00:45;;;;;;;9.68;5.75;;;17.50;99.90;;;;;;5018691;28;20202;-80
2023/08/05 00:03:14;;;;;;;6.15;5.13;;;17.50;99.90;;;;;;5005026;28;20214;-80
2023/08/05 00:05:42;;;;;;;7.78;4.82;;;17.50;99.90;;;;;;4998654;28;20211;-80
2023/08/05 00:08:10;;;;;;;5.35;4.82;;;17.50;99.90;;;;;;4998437;28;20215;-80
2023/08/05 00:10:37;;;;;;;6.80;5.13;;;17.50;99.90;;;;;;4997658;28;20717;-80
2023/08/05 00:13:04;;;;;;;5.63;5.03;;;17.50;99.90;;;;;;4997908;28;20211;-80
2023/08/05 00:15:32;;;;;;;7.72;5.05;;;17.40;99.90;;;;;;5030112;28;20215;-80
2023/08/05 00:17:59;;;;;;;7.90;5.65;;;17.50;99.90;;;;;;5030585;28;20567;-80
2023/08/05 00:20:28;;;;;;;7.00;5.05;;;17.30;99.90;;;;;;4997023;28;20211;-80
2023/08/05 00:22:56;;;;;;;6.63;5.47;;;17.30;99.90;;;;;;4998545;28;20200;-79
2023/08/05 00:25:23;;;;;;;9.38;5.63;;;17.40;99.90;;;;;;5002902;28;20199;-79
2023/08/05 00:27:51;;;;;;;7.07;5.57;;;17.40;99.90;;;;;;4994014;28;20219;-78
2023/08/05 00:30:18;;;;;;;7.00;6.20;;;17.20;99.90;;;;;;4990071;28;20203;-80
2023/08/05 00:32:46;;;;;;;7.20;5.70;;;17.20;99.90;;;;;;4999597;28;20206;-80
2023/08/05 00:35:14;;;;;;;6.30;5.70;;;17.20;99.90;;;;;;4994228;28;20223;-80
2023/08/05 00:37:45;;;;;;;7.03;5.78;;;17.10;99.90;;;;;;5001475;28;20216;-80
2023/08/05 00:40:12;;;;;;;10.85;6.30;;;17.10;99.90;;;;;;4996920;28;20211;-80
2023/08/05 00:42:40;;;;;;;7.10;5.25;;;17.00;99.90;;;;;;5004030;28;20203;-80
2023/08/05 00:45:08;;;;;;;6.18;5.35;;;17.00;99.90;;;;;;4999624;28;20206;-80
2023/08/05 00:47:36;;;;;;;6.53;5.28;;;17.00;99.90;;;;;;5010025;28;20203;-79
2023/08/05 00:50:05;;;;;;;5.80;5.15;;;17.10;99.90;;;;;;4994263;28;20206;-78
2023/08/05 00:52:33;;;;;;;9.73;5.55;;;17.00;99.90;;;;;;5014028;28;20206;-79
2023/08/05 00:55:02;;;;;;;7.15;5.20;;;17.10;99.90;;;;;;5044896;28;20715;-80
2023/08/05 00:57:29;;;;;;;6.55;5.15;;;17.00;99.90;;;;;;5018050;28;20227;-79
2023/08/05 00:59:57;;;;;;;7.10;5.28;;;17.00;99.90;;;;;;5000832;28;20196;-79
2023/08/05 01:02:24;;;;;;;8.55;5.70;;;17.00;99.90;;;;;;4997385;28;20207;-80
2023/08/05 01:04:51;;;;;;;6.47;4.82;;;17.00;99.90;;;;;;5009367;28;20197;-79
2023/08/05 01:07:21;;;;;;;5.75;5.15;;;16.90;99.90;;;;;;5000164;28;20228;-79
2023/08/05 01:09:48;;;;;;;7.35;5.22;;;17.00;99.90;;;;;;5006084;28;20203;-79
2023/08/05 01:12:20;;;;;;;8.18;5.43;;;16.80;99.90;;;;;;4999110;28;20208;-80
2023/08/05 01:14:48;;;;;;;8.43;5.65;;;16.80;99.90;;;;;;5012446;28;20214;-80
2023/08/05 01:17:16;;;;;;;6.78;5.97;;;16.70;99.90;;;;;;4999722;28;20228;-79
2023/08/05 01:19:45;;;;;;;9.00;6.30;;;16.80;99.90;;;;;;4992877;28;20215;-79
2023/08/05 01:22:20;;;;;;;7.50;5.63;;;16.80;99.90;;;;;;5015754;28;20212;-80
2023/08/05 01:24:56;;;;;;;9.55;6.15;;;16.60;99.90;;;;;;5008407;28;20194;-80
2023/08/05 01:27:25;;;;;;;5.50;5.00;;;16.60;99.90;;;;;;5004216;28;20220;-79
2023/08/05 01:29:53;;;;;;;8.30;5.72;;;16.70;99.90;;;;;;4990461;28;20201;-77
2023/08/05 01:32:21;;;;;;;7.05;5.43;;;16.60;99.90;;;;;;4994345;28;20211;-80
2023/08/05 01:34:50;;;;;;;6.97;5.28;;;16.50;99.90;;;;;;5003084;28;20214;-79
2023/08/05 01:37:17;;;;;;;8.02;5.40;;;16.60;99.90;;;;;;5030307;28;20227;-79
2023/08/05 01:39:45;;;;;;;8.40;6.03;;;16.40;99.90;;;;;;5020436;28;20219;-79
2023/08/05 01:42:14;;;;;;;6.88;5.35;;;16.40;99.90;;;;;;4999970;28;20212;-80
2023/08/05 01:44:42;;;;;;;7.07;5.78;;;16.40;99.90;;;;;;4997769;28;20223;-78
2023/08/05 01:47:10;;;;;;;8.60;5.85;;;16.10;99.90;;;;;;4980222;28;20220;-80
2023/08/05 01:49:37;;;;;;;6.55;5.25;;;16.00;99.90;;;;;;4985639;28;20205;-80
2023/08/05 01:52:05;;;;;;;7.65;6.03;;;16.10;99.90;;;;;;5011187;28;20200;-79
2023/08/05 01:54:33;;;;;;;6.95;5.75;;;16.20;99.90;;;;;;5019845;28;20217;-79
2023/08/05 01:57:00;;;;;;;6.43;5.15;;;16.30;99.90;;;;;;4998415;28;20227;-80
2023/08/05 01:59:28;;;;;;;7.18;5.82;;;16.40;99.90;;;;;;4998521;28;20192;-79
2023/08/05 02:01:56;;;;;;;8.57;5.65;;;16.50;99.90;;;;;;5012488;28;20253;-79
2023/08/05 02:04:24;;;;;;;5.97;5.47;;;16.50;99.90;;;;;;5007503;28;20190;-78
2023/08/05 02:06:51;;;;;;;9.18;5.57;;;16.60;99.90;;;;;;5004461;28;20206;-80
2023/08/05 02:09:19;;;;;;;7.85;5.30;;;16.70;99.90;;;;;;4995672;28;20802;-80
2023/08/05 02:11:46;;;;;;;7.28;5.45;;;16.70;99.90;;;;;;5022585;28;20203;-79
2023/08/05 02:14:15;;;;;;;6.60;5.22;;;16.70;99.90;;;;;;5024937;28;20203;-80
2023/08/05 02:16:43;;;;;;;7.18;5.60;;;16.70;99.90;;;;;;5000365;28;20570;-80
2023/08/05 02:19:12;;;;;;;7.13;5.50;;;16.60;99.90;;;;;;5002445;28;20693;-80
2023/08/05 02:21:39;;;;;;;8.98;5.80;;;16.60;99.90;;;;;;5019034;28;20191;-79
2023/08/05 02:24:09;;;;;;;7.65;5.60;;;16.50;99.90;;;;;;5022798;28;20203;-80
2023/08/05 02:26:37;;;;;;;7.43;5.30;;;16.60;99.90;;;;;;5005475;28;20554;-80
2023/08/05 02:29:04;;;;;;;5.40;4.90;;;16.80;99.90;;;;;;4995267;28;20230;-79
2023/08/05 02:31:32;;;;;;;6.22;5.20;;;16.70;99.90;;;;;;4985392;28;20211;-80
2023/08/05 02:33:59;;;;;;;6.05;5.30;;;16.70;99.90;;;;;;5015215;28;20195;-80
2023/08/05 02:36:28;;;;;;;7.00;5.22;;;16.80;99.90;;;;;;4995951;28;20579;-80
2023/08/05 02:38:55;;;;;;;8.73;5.70;;;16.80;99.90;;;;;;4998348;28;20230;-79
2023/08/05 02:41:23;;;;;;;5.75;5.07;;;16.70;99.90;;;;;;4994552;28;20196;-79
2023/08/05 02:43:50;;;;;;;6.18;5.20;;;16.60;99.90;;;;;;5002097;28;20203;-80
2023/08/05 02:46:18;;;;;;;6.80;6.10;;;16.50;99.90;;;;;;4986917;28;20198;-80
2023/08/05 02:48:45;;;;;;;7.25;5.50;;;16.40;99.90;;;;;;4992929;28;20228;-80
2023/08/05 02:51:13;;;;;;;5.57;5.07;;;16.30;99.90;;;;;;4996858;28;20212;-80
2023/08/05 02:53:43;;;;;;;6.90;5.53;;;16.10;99.90;;;;;;5038000;28;20206;-80
2023/08/05 02:56:10;;;;;;;6.15;5.20;;;16.20;99.90;;;;;;5017638;28;20212;-80
2023/08/05 02:58:38;;;;;;;5.47;4.95;;;16.30;99.90;;;;;;5027999;28;20219;-79
2023/08/05 03:01:06;;;;;;;8.13;5.40;;;16.40;99.90;;;;;;4996035;28;20531;-80
2023/08/05 03:03:34;;;;;;;5.88;5.10;;;16.50;99.90;;;;;;4999470;28;20202;-79
2023/08/05 03:06:01;;;;;;;8.48;5.45;;;16.50;99.90;;;;;;4995317;28;20196;-79
2023/08/05 03:08:29;;;;;;;7.55;5.80;;;16.60;99.90;;;;;;5007652;28;20217;-79
2023/08/05 03:11:01;;;;;;;8.05;5.82;;;16.60;99.90;;;;;;5008319;28;20207;-80
2023/08/05 03:13:30;;;;;;;6.53;5.20;;;16.60;99.90;;;;;;4996851;28;20191;-80
2023/08/05 03:16:09;;;;;;;5.40;4.90;;;16.60;99.90;;;;;;4990436;28;20729;-80
2023/08/05 03:18:38;;;;;;;5.88;5.20;;;16.60;99.90;;;;;;5008842;28;20231;-80
2023/08/05 03:21:05;;;;;;;5.30;4.80;;;16.70;99.90;;;;;;5002182;28;20207;-80
2023/08/05 03:23:36;;;;;;;8.93;5.10;;;16.70;99.90;;;;;;5023894;28;20208;-80
2023/08/05 03:26:05;;;;;;;9.23;5.40;;;16.60;99.90;;;;;;5002906;28;20211;-80
2023/08/05 03:28:33;;;;;;;6.05;4.93;;;16.40;99.90;;;;;;4997100;28;20681;-80
2023/08/05 03:31:01;;;;;;;6.10;5.25;;;16.50;99.90;;;;;;5033629;28;20203;-80
2023/08/05 03:33:31;;;;;;;7.68;5.25;;;16.30;99.90;;;;;;5002638;28;20575;-80
2023/08/05 03:35:59;;;;;;;7.78;4.72;;;16.40;99.90;;;;;;5005911;28;20223;-80
2023/08/05 03:38:28;;;;;;;6.32;5.43;;;16.50;99.90;;;;;;5005810;28;20582;-80
2023/08/05 03:40:56;;;;;;;6.72;4.93;;;16.60;99.90;;;;;;4995198;28;20192;-80
2023/08/05 03:43:25;;;;;;;6.22;5.65;;;16.60;99.90;;;;;;5001542;28;20208;-80
2023/08/05 03:45:52;;;;;;;7.15;5.25;;;16.50;99.90;;;;;;5004912;28;20196;-80
2023/08/05 03:48:20;;;;;;;7.38;6.60;;;16.50;99.90;;;;;;5001082;28;20226;-79
2023/08/05 03:50:48;;;;;;;7.88;5.80;;;16.60;99.90;;;;;;5014212;28;20200;-79
2023/08/05 03:53:15;;;;;;;7.05;5.10;;;16.60;99.90;;;;;;5021465;28;20199;-80
2023/08/05 03:55:43;;;;;;;6.43;5.55;;;16.60;99.90;;;;;;5005553;28;20201;-79
2023/08/05 03:58:11;;;;;;;6.55;5.10;;;16.50;99.90;;;;;;5031667;28;20231;-80
2023/08/05 04:00:43;;;;;;;8.60;5.43;;;16.50;99.90;;;;;;5012594;28;20208;-80
2023/08/05 04:03:10;;;;;;;6.68;5.57;;;16.50;99.90;;;;;;5024014;28;20187;-80
2023/08/05 04:05:38;;;;;;;6.35;5.18;;;16.50;99.90;;;;;;5010699;28;20203;-79
2023/08/05 04:08:06;;;;;;;5.97;5.30;;;16.40;99.90;;;;;;5004705;28;20216;-79
2023/08/05 04:10:35;;;;;;;6.57;5.20;;;16.40;99.90;;;;;;5011648;28;20199;-79
2023/08/05 04:13:04;;;;;;;6.85;5.63;;;16.50;99.90;;;;;;5005110;28;20200;-79
2023/08/05 04:15:35;;;;;;;6.13;5.53;;;16.40;99.90;;;;;;5017218;28;20207;-79
2023/08/05 04:18:05;;;;;;;6.47;5.35;;;16.30;99.90;;;;;;5008521;28;20219;-79
2023/08/05 04:20:34;;;;;;;7.40;5.97;;;16.50;99.90;;;;;;5009282;28;20198;-79
2023/08/05 04:23:04;;;;;;;7.93;6.35;;;16.40;99.90;;;;;;5010776;28;20429;-79
2023/08/05 04:25:32;;;;;;;6.78;6.13;;;16.40;99.90;;;;;;5011002;28;20204;-79
2023/08/05 04:28:00;;;;;;;8.10;6.65;;;16.20;99.90;;;;;;5030398;28;20225;-79
2023/08/05 04:30:27;;;;;;;6.95;5.75;;;16.20;99.90;;;;;;5002971;28;20654;-79
2023/08/05 04:32:54;;;;;;;6.65;5.95;;;16.40;99.90;;;;;;5004814;28;20204;-79
2023/08/05 04:35:23;;;;;;;10.30;6.43;;;16.50;99.90;;;;;;4998746;28;20208;-79
2023/08/05 04:37:51;;;;;;;6.50;5.80;;;16.60;99.90;;;;;;5018879;28;20227;-79
2023/08/05 04:40:18;;;;;;;7.40;5.53;;;16.60;99.90;;;;;;5000125;28;20576;-79
2023/08/05 04:42:46;;;;;;;6.05;5.20;;;16.70;99.90;;;;;;4999474;28;20577;-79
2023/08/05 04:45:13;;;;;;;6.65;6.00;;;16.70;99.90;;;;;;5031878;28;20231;-79
2023/08/05 04:47:41;;;;;;;7.38;6.38;;;16.70;99.90;;;;;;5009893;28;20222;-79
2023/08/05 04:50:09;;;;;;;6.68;5.65;;;16.60;99.90;;;;;;5025078;28;20200;-79
2023/08/05 04:52:39;;;;;;;8.32;6.40;;;16.50;99.90;;;;;;5012454;28;20199;-79
2023/08/05 04:55:10;;;;;;;6.65;6.03;;;16.30;99.90;;;;;;5005465;28;20202;-79
2023/08/05 04:57:38;;;;;;;7.90;6.10;;;16.20;99.90;;;;;;5010142;28;20219;-79
2023/08/05 05:00:07;;;;;;;8.38;6.50;;;16.20;99.90;;;;;;5016482;28;20198;-79
2023/08/05 05:02:34;;;;;;;9.27;6.28;;;16.30;99.90;;;;;;5014697;28;20196;-80
2023/08/05 05:05:03;;;;;;;7.55;5.90;;;16.10;99.90;;;;;;5013000;28;20203;-80
2023/08/05 05:07:30;;;;;;;6.65;6.05;;;16.30;99.90;;;;;;5028884;28;20215;-80
2023/08/05 05:09:59;;;;;;;8.07;6.88;;;16.30;99.90;;;;;;5018928;28;20196;-80
2023/08/05 05:12:27;;;;;;;9.20;7.07;;;16.30;99.90;;;;;;5003780;28;20203;-80
2023/08/05 05:14:54;;;;;;;9.57;6.78;;;16.30;99.90;;;;;;5003603;28;20199;-80
2023/08/05 05:17:22;;;;;;;10.35;7.18;;;16.40;99.90;;;;;;5004516;28;20227;-80
2023/08/05 05:19:49;;;;;;;8.95;7.60;;;16.40;99.90;;;;;;5007166;28;20199;-80
2023/08/05 05:22:18;;;;;;;11.77;7.90;;;16.50;99.90;;;;;;5001766;28;20195;-80
2023/08/05 05:24:50;;;;;;;10.43;7.70;;;16.60;99.90;;;;;;5022543;28;20196;-80
2023/08/05 05:27:23;;;;;;;7.78;6.50;;;16.70;99.90;;;;;;4999867;28;20295;-82
2023/08/05 05:29:57;;;;;;;6.78;5.10;;;16.90;99.90;;;;;;4998612;28;20206;-82
2023/08/05 05:32:37;;;;;;;7.43;6.28;;;17.50;99.90;;;;;;5004930;28;20206;-81
2023/08/05 05:35:05;;;;;;;8.48;6.97;;;17.70;99.90;;;;;;5002013;28;20203;-82
2023/08/05 05:37:33;;;;;;;9.63;7.13;;;17.80;99.90;;;;;;5005738;28;20228;-82
2023/08/05 05:40:00;;;;;;;5.65;4.68;;;17.60;99.90;;;;;;4995280;28;20203;-80
2023/08/05 05:42:30;;;;;;;7.22;5.32;;;17.90;1.00;;;;;;5019082;28;20203;-82
2023/08/05 05:44:59;;;;;;;8.48;7.20;;;18.20;99.90;;;;;;4999611;28;20200;-82
2023/08/05 05:47:26;;;;;;;11.10;8.80;;;17.80;99.90;;;;;;5000287;28;20211;-82
2023/08/05 05:49:53;;;;;;;10.05;8.40;;;17.40;24.20;;;;;;5003623;28;20204;-81
2023/08/05 05:52:21;;;;;;;9.43;8.43;;;17.40;1.00;;;;;;5012943;28;20203;-80
2023/08/05 05:54:57;;;;;;;8.77;6.20;;;17.60;1.00;;;;;;5013380;28;20203;-81
2023/08/05 05:57:41;;;;;;;6.32;5.35;;;17.90;99.90;;;;;;5010367;28;20227;-81
2023/08/05 06:00:12;;;;;;;10.73;8.75;;;18.20;1.00;;;;;;5001135;28;20207;-81
2023/08/05 06:02:42;;;;;;;8.20;6.90;;;18.10;1.00;;;;;;5021504;28;20198;-81
2023/08/05 06:05:11;;;;;;;10.60;8.63;;;18.10;99.90;;;;;;5025853;28;20203;-82
2023/08/05 06:07:39;;;;;;;8.88;7.82;;;18.10;99.90;;;;;;5004669;28;20219;-81
2023/08/05 06:10:08;;;;;;;8.93;6.40;;;17.70;1.00;;;;;;5005360;28;20204;-81
2023/08/05 06:12:37;;;;;;;11.70;8.95;;;18.20;1.00;;;;;;5010367;28;20599;-81
2023/08/05 06:15:07;;;;;;;10.52;8.32;;;18.00;99.90;;;;;;5008067;28;20212;-80
2023/08/05 06:17:35;;;;;;;26.88;12.80;;;17.90;1.00;;;;;;4996640;28;20223;-83
2023/08/05 06:20:03;;;;;;;14.80;8.93;;;18.00;99.90;;;;;;4989390;28;20207;-84
2023/08/05 06:22:31;;;;;;;14.68;9.23;;;18.10;1.00;;;;;;4991816;28;20196;-84
2023/08/05 06:24:58;;;;;;;10.27;8.60;;;18.10;1.00;;;;;;5016366;28;20202;-84
2023/08/05 06:27:26;;;;;;;10.27;6.88;;;18.20;1.00;;;;;;5005938;28;20214;-83
2023/08/05 06:29:53;;;;;;;9.02;7.90;;;18.50;1.00;;;;;;5017289;28;20569;-84
2023/08/05 06:32:22;;;;;;;11.85;7.47;;;18.40;99.90;;;;;;4995437;28;20658;-83
2023/08/05 06:34:50;;;;;;;9.80;6.88;;;18.20;1.00;;;;;;5001649;28;20548;-84
2023/08/05 06:37:17;;;;;;;10.23;7.07;;;18.00;1.00;;;;;;5007020;28;20219;-84
2023/08/05 06:39:45;;;;;;;7.45;6.18;;;17.90;1.00;;;;;;5007538;28;20203;-84
2023/08/05 06:42:12;;;;;;;8.73;6.95;;;18.10;99.90;;;;;;5027112;28;20196;-84
2023/08/05 06:44:44;;;;;;;7.63;6.25;;;18.10;99.90;;;;;;5002782;28;20202;-83
2023/08/05 06:47:11;;;;;;;6.70;5.05;;;18.40;99.90;;;;;;5021037;28;20200;-84
2023/08/05 06:49:40;;;;;;;9.02;5.70;;;18.40;99.90;;;;;;4980223;28;20200;-84
2023/08/05 06:52:08;;;;;;;8.15;4.90;;;18.50;99.90;;;;;;4975685;28;20201;-84
2023/08/05 06:54:36;;;;;;;6.25;4.88;;;18.70;99.90;;;;;;4979104;28;20207;-84
2023/08/05 06:57:03;;;;;;;7.88;6.30;;;18.50;99.90;;;;;;4993701;28;20207;-84
2023/08/05 06:59:31;;;;;;;6.35;5.57;;;18.00;99.90;;;;;;5000468;28;20215;-83
2023/08/05 07:02:00;;;;;;;9.13;5.20;;;18.00;60.40;;;;;;4994954;28;20196;-84
2023/08/05 07:04:28;;;;;;;6.32;4.93;;;18.30;99.90;;;;;;4998511;28;20208;-84
2023/08/05 07:06:57;;;;;;;5.30;4.43;;;18.60;99.90;;;;;;4993616;28;20246;-84
2023/08/05 07:09:24;;;;;;;5.93;4.68;;;18.60;99.90;;;;;;5006602;28;20205;-84
2023/08/05 07:11:54;;;;;;;7.40;4.47;;;18.20;99.90;;;;;;5000306;28;20218;-83
2023/08/05 07:14:21;;;;;;;6.10;4.22;;;18.40;99.90;;;;;;5031424;28;20566;-83
2023/08/05 07:16:49;;;;;;;5.05;4.40;;;18.20;99.90;;;;;;4997348;28;20206;-83
2023/08/05 07:19:16;;;;;;;6.30;4.13;;;18.20;99.90;;;;;;4999284;28;20704;-83
2023/08/05 07:21:44;;;;;;;4.90;3.63;;;18.40;99.90;;;;;;5013802;28;20199;-84
2023/08/05 07:24:12;;;;;;;7.45;3.90;;;18.60;99.90;;;;;;5007595;28;20210;-84
2023/08/05 07:26:40;;;;;;;9.30;4.95;;;18.60;99.90;;;;;;4999676;28;20577;-86
2023/08/05 07:29:07;;;;;;;8.60;5.53;;;18.60;99.90;;;;;;5026509;28;20211;-80
2023/08/05 07:31:38;;;;;;;7.10;6.03;;;18.20;99.90;;;;;;5037459;28;20206;-80
2023/08/05 07:34:05;;;;;;;7.75;6.45;;;17.90;99.90;;;;;;5001180;28;20214;-81
2023/08/05 07:36:33;;;;;;;9.35;6.43;;;18.00;99.90;;;;;;5006101;28;20212;-80
2023/08/05 07:39:03;;;;;;;12.18;6.75;;;18.00;99.90;;;;;;4996695;28;20580;-80
2023/08/05 07:41:32;;;;;;;10.48;7.07;;;18.20;99.90;;;;;;5007186;28;20202;-80
2023/08/05 07:44:00;;;;;;;8.60;6.35;;;18.30;99.90;;;;;;4995134;28;20207;-80
2023/08/05 07:46:30;;;;;;;8.45;6.30;;;18.30;99.90;;;;;;5001753;28;20191;-80
2023/08/05 07:48:59;;;;;;;7.57;5.72;;;18.30;99.90;;;;;;5023415;28;20224;-81
2023/08/05 07:51:33;;;;;;;9.35;6.97;;;18.20;99.90;;;;;;4996723;28;20195;-80
2023/08/05 07:54:01;;;;;;;9.75;7.63;;;18.00;99.90;;;;;;5005083;28;20194;-80
2023/08/05 07:56:28;;;;;;;10.20;8.10;;;18.10;99.90;;;;;;4999943;28;20211;-80
2023/08/05 07:58:57;;;;;;;12.48;9.50;;;18.10;99.90;;;;;;5013237;28;20463;-81
2023/08/05 08:01:33;;;;;;;13.60;9.95;;;18.00;99.90;;;;;;4996815;28;20191;-81
2023/08/05 08:04:08;;;;;;;12.95;9.52;;;18.30;99.90;;;;;;5021528;28;20201;-81
2023/08/05 08:06:42;;;;;;;13.68;9.82;;;18.30;99.90;;;;;;5002236;28;20215;-82
2023/08/05 08:09:11;;;;;;;13.65;10.13;;;18.30;99.90;;;;;;5011234;28;20324;-80
2023/08/05 08:11:38;;;;;;;15.68;11.88;;;18.40;99.90;;;;;;5011824;28;20206;-79
2023/08/05 08:14:07;;;;;;;12.80;10.85;;;18.30;99.90;;;;;;5012159;28;20210;-81
2023/08/05 08:16:35;;;;;;;12.75;10.68;;;18.30;99.90;;;;;;5001392;28;20208;-82
2023/08/05 08:19:04;;;;;;;15.43;11.73;;;18.30;99.90;;;;;;5004007;28;20230;-81
2023/08/05 08:21:41;;;;;;;15.82;11.98;;;18.20;99.90;;;;;;4996738;28;20202;-81
2023/08/05 08:24:10;;;;;;;17.92;14.07;;;18.40;99.90;;;;;;4996536;28;20214;-81
2023/08/05 08:26:37;;;;;;;16.15;12.60;;;18.40;99.90;;;;;;5018910;28;20208;-82
2023/08/05 08:29:14;;;;;;;16.17;13.05;;;18.40;99.90;;;;;;4996772;28;20224;-81
2023/08/05 08:31:42;;;;;;;18.63;13.50;;;18.40;99.90;;;;;;5008015;28;20195;-81
2023/08/05 08:34:10;;;;;;;16.42;13.18;;;18.60;99.90;;;;;;5004615;28;20219;-81
2023/08/05 08:36:37;;;;;;;18.17;14.98;;;18.40;99.90;;;;;;5016814;28;20199;-81
2023/08/05 08:39:05;;;;;;;20.48;13.82;;;18.20;99.90;;;;;;5005985;28;20231;-84
2023/08/05 08:41:40;;;;;;;17.00;13.93;;;18.30;99.90;;;;;;5002561;28;20203;-81
2023/08/05 08:44:09;;;;;;;15.77;12.52;;;18.20;99.90;;;;;;5014151;28;20207;-79
2023/08/05 08:46:38;;;;;;;15.60;13.18;;;18.30;99.90;;;;;;4997563;28;20213;-81
2023/08/05 08:49:08;;;;;;;15.02;12.18;;;18.50;99.90;;;;;;4995175;28;20702;-81
2023/08/05 08:51:38;;;;;;;15.43;11.90;;;18.50;99.90;;;;;;4998608;28;20200;-82
2023/08/05 08:54:06;;;;;;;16.75;11.10;;;18.50;99.90;;;;;;5003872;28;20200;-81
2023/08/05 08:56:35;;;;;;;13.30;11.77;;;18.40;99.90;;;;;;5015821;28;20564;-82
2023/08/05 08:59:03;;;;;;;12.32;10.02;;;18.50;99.90;;;;;;5011762;28;20235;-81
2023/08/05 09:01:31;;;;;;;13.68;10.63;;;18.50;99.90;;;;;;4998784;28;20203;-82
2023/08/05 09:04:01;;;;;;;12.82;9.90;;;18.50;99.90;;;;;;4996770;28;20204;-82
2023/08/05 09:06:29;;;;;;;11.70;10.10;;;18.60;99.90;;;;;;4996125;28;20191;-82
2023/08/05 09:09:12;;;;;;;11.68;8.93;;;18.60;99.90;;;;;;4998868;28;20211;-82
2023/08/05 09:11:39;;;;;;;10.23;9.13;;;18.70;99.90;;;;;;4989543;28;20215;-80
2023/08/05 09:14:10;;;;;;;10.98;9.45;;;18.90;99.90;;;;;;5002693;28;20208;-80
2023/08/05 09:16:57;;;;;;;11.02;9.82;;;18.70;99.90;;;;;;4998276;28;20207;-80
2023/08/05 09:19:33;;;;;;;12.02;10.00;;;18.90;99.90;;;;;;5028873;28;20681;-81
2023/08/05 09:22:01;;;;;;;11.95;9.65;;;18.70;99.90;;;;;;5000130;28;20207;-81
2023/08/05 09:24:29;;;;;;;9.68;8.45;;;18.60;99.90;;;;;;5020682;28;20199;-80
2023/08/05 09:26:57;;;;;;;11.45;9.27;;;18.50;99.90;;;;;;5026859;28;20654;-80
2023/08/05 09:29:26;;;;;;;10.80;9.35;;;18.60;99.90;;;;;;5004042;28;20191;-83
2023/08/05 09:31:58;;;;;;;13.30;10.90;;;18.60;99.90;;;;;;5010397;28;20199;-80
2023/08/05 09:34:34;;;;;;;12.90;10.13;;;18.60;99.90;;;;;;5022559;28;20198;-80
2023/08/05 09:37:02;;;;;;;14.75;11.93;;;18.80;99.90;;;;;;5002777;28;20199;-81
2023/08/05 09:39:47;;;;;;;15.07;11.65;;;18.80;99.90;;;;;;4996658;28;20577;-80
2023/08/05 09:42:23;;;;;;;13.57;11.35;;;18.60;99.90;;;;;;4999528;28;20547;-80
2023/08/05 09:44:52;;;;;;;14.25;10.90;;;18.70;99.90;;;;;;5004422;28;20195;-80
2023/08/05 09:47:52;;;;;;;13.20;10.85;;;18.80;99.90;;;;;;4991764;28;20223;-80
2023/08/05 09:50:22;;;;;;;11.00;9.75;;;18.80;99.90;;;;;;5002178;28;20187;-80
2023/08/05 09:52:52;;;;;;;10.45;8.65;;;19.00;99.90;;;;;;5003182;28;20538;-81
2023/08/05 09:55:19;;;;;;;10.15;7.90;;;19.10;99.90;;;;;;5022952;28;20196;-81
2023/08/05 09:57:47;;;;;;;8.52;7.63;;;19.20;99.90;;;;;;5012028;28;20228;-80
2023/08/05 10:00:15;;;;;;;9.77;7.55;;;19.30;99.90;;;;;;4995750;28;20219;-80
2023/08/05 10:02:44;;;;;;;9.82;7.70;;;19.40;99.90;;;;;;5006268;28;20202;-82
2023/08/05 10:05:13;;;;;;;9.75;8.75;;;19.40;99.90;;;;;;5032440;28;20208;-80
2023/08/05 10:07:43;;;;;;;9.90;8.60;;;19.30;99.90;;;;;;4996569;28;20219;-80
2023/08/05 10:10:12;;;;;;;10.85;8.75;;;19.50;99.90;;;;;;4999353;28;20664;-80
2023/08/05 10:12:44;;;;;;;9.13;8.23;;;19.70;99.90;;;;;;5000056;28;20219;-80
2023/08/05 10:15:25;;;;;;;9.70;8.70;;;19.60;99.90;;;;;;5015601;28;20202;-80
2023/08/05 10:17:53;;;;;;;9.88;8.88;;;19.80;99.90;;;;;;4994380;28;20633;-80
2023/08/05 10:20:21;;;;;;;10.15;9.02;;;19.80;99.90;;;;;;4994180;28;20223;-80
2023/08/05 10:23:04;;;;;;;9.85;8.85;;;19.70;99.90;;;;;;4995679;28;20196;-80
2023/08/05 10:25:50;;;;;;;10.07;9.07;;;19.80;99.90;;;;;;5001860;28;20206;-80
2023/08/05 10:28:40;;;;;;;9.73;8.82;;;19.80;99.90;;;;;;5012013;28;20620;-80
2023/08/05 10:31:24;;;;;;;10.13;9.00;;;19.90;99.90;;;;;;5028552;28;20196;-80
2023/08/05 10:34:11;;;;;;;11.85;10.75;;;19.80;99.90;;;;;;5002617;28;20197;-80
2023/08/05 10:36:43;;;;;;;11.15;9.40;;;19.70;99.90;;;;;;5010420;28;20191;-80
2023/08/05 10:39:43;;;;;;;10.80;9.77;;;19.70;99.90;;;;;;5006197;28;20701;-80
2023/08/05 10:42:34;;;;;;;11.73;10.43;;;20.00;99.90;;;;;;5001137;28;20203;-80
2023/08/05 10:45:04;;;;;;;10.25;9.15;;;20.40;99.90;;;;;;4995204;28;20207;-80
2023/08/05 10:47:50;;;;;;;10.45;9.48;;;20.00;99.90;;;;;;4998556;28;20219;-80
2023/08/05 10:50:18;;;;;;;10.70;9.60;;;20.40;99.90;;;;;;5001809;28;20195;-80
2023/08/05 10:52:45;;;;;;;14.07;9.50;;;20.40;99.90;;;;;;5005048;28;20606;-80
2023/08/05 10:55:14;;;;;;;10.20;8.55;;;20.50;99.90;;;;;;5004805;28;20203;-81
2023/08/05 10:57:46;;;;;;;9.25;8.35;;;20.70;99.90;;;;;;4998034;28;20223;-80
2023/08/05 11:00:24;;;;;;;8.23;7.43;;;20.70;99.90;;;;;;4993077;28;20207;-80
2023/08/05 11:03:41;;;;;;;9.18;8.05;;;20.50;99.90;;;;;;5004543;28;20203;-80
2023/08/05 11:06:09;;;;;;;10.45;9.13;;;20.40;99.90;;;;;;5019374;28;20564;-80
2023/08/05 11:08:37;;;;;;;9.45;8.40;;;20.30;99.90;;;;;;5001732;28;20215;-80
2023/08/05 11:11:09;;;;;;;9.95;9.05;;;20.40;99.90;;;;;;5002735;28;20234;-80
2023/08/05 11:13:37;;;;;;;10.40;9.30;;;20.60;99.90;;;;;;5012992;28;20207;-81
2023/08/05 11:16:10;;;;;;;9.27;8.35;;;20.90;99.90;;;;;;4994786;28;20215;-81
2023/08/05 11:18:38;;;;;;;8.85;8.05;;;20.90;99.90;;;;;;4999227;28;20226;-81
2023/08/05 11:21:07;;;;;;;9.65;8.50;;;20.70;99.90;;;;;;5029316;28;20246;-81
2023/08/05 11:23:38;;;;;;;9.32;8.50;;;20.60;99.90;;;;;;5010171;28;20203;-81
2023/08/05 11:26:07;;;;;;;8.73;7.95;;;20.70;99.90;;;;;;5012376;28;20207;-81
2023/08/05 11:28:35;;;;;;;10.30;9.25;;;20.80;99.90;;;;;;4997449;28;20227;-81
2023/08/05 11:31:03;;;;;;;9.55;8.65;;;20.60;99.90;;;;;;5023068;28;20191;-81
2023/08/05 11:33:30;;;;;;;9.40;8.55;;;20.70;99.90;;;;;;5012043;28;20199;-83
2023/08/05 11:35:58;;;;;;;10.13;9.15;;;20.70;99.90;;;;;;5003842;28;20207;-81
2023/08/05 11:38:26;;;;;;;8.48;7.72;;;20.70;99.90;;;;;;5006139;28;20235;-84
2023/08/05 11:40:55;;;;;;;7.90;7.10;;;20.60;99.90;;;;;;4991528;28;20219;-81
2023/08/05 11:43:24;;;;;;;8.00;7.30;;;20.60;99.90;;;;;;4989171;28;20207;-81
2023/08/05 11:45:55;;;;;;;8.90;8.00;;;20.60;99.90;;;;;;5021269;28;20223;-81
2023/08/05 11:48:24;;;;;;;9.25;8.30;;;20.60;99.90;;;;;;4983873;28;20227;-81
2023/08/05 11:50:56;;;;;;;9.63;8.57;;;20.50;99.90;;;;;;4999255;28;20207;-81
2023/08/05 11:53:24;;;;;;;9.23;8.32;;;20.50;99.90;;;;;;5008491;28;20217;-81
2023/08/05 11:55:52;;;;;;;8.88;7.35;;;20.40;99.90;;;;;;5009418;28;20209;-81
2023/08/05 11:58:21;;;;;;;8.88;8.07;;;20.40;99.90;;;;;;5008777;28;20230;-81
2023/08/05 12:00:52;;;;;;;9.05;8.15;;;20.40;99.90;;;;;;4998171;28;20216;-81
2023/08/05 12:03:20;;;;;;;8.25;7.45;;;20.50;99.90;;;;;;5011197;28;20208;-81
2023/08/05 12:05:48;;;;;;;7.95;7.30;;;20.40;99.90;;;;;;4995134;28;20211;-81
2023/08/05 12:08:36;;;;;;;8.70;7.90;;;20.50;99.90;;;;;;4996742;28;20228;-81
2023/08/05 12:11:04;;;;;;;8.18;7.47;;;20.50;99.90;;;;;;4997163;28;20200;-81
2023/08/05 12:13:33;;;;;;;7.82;7.13;;;20.50;99.90;;;;;;5007206;28;20214;-80
2023/08/05 12:16:15;;;;;;;7.97;7.28;;;20.50;99.90;;;;;;5003205;28;20210;-80
2023/08/05 12:18:44;;;;;;;8.88;8.07;;;20.50;99.90;;;;;;4995008;28;20591;-80
2023/08/05 12:21:11;;;;;;;8.38;7.53;;;20.40;99.90;;;;;;4998621;28;20224;-82
2023/08/05 12:23:41;;;;;;;10.35;8.25;;;20.40;99.90;;;;;;4985042;28;20661;-80
2023/08/05 12:26:08;;;;;;;8.23;7.53;;;20.50;99.90;;;;;;5024138;28;20219;-80
2023/08/05 12:28:36;;;;;;;8.93;7.97;;;20.60;99.90;;;;;;5008926;28;20245;-80
2023/08/05 12:31:06;;;;;;;9.27;8.40;;;20.60;99.90;;;;;;5008405;28;20204;-82
2023/08/05 12:33:33;;;;;;;9.07;8.15;;;20.70;99.90;;;;;;5006578;28;20212;-81
2023/08/05 12:36:01;;;;;;;9.40;8.60;;;20.60;99.90;;;;;;4996042;28;20207;-82
2023/08/05 12:38:28;;;;;;;8.88;7.97;;;20.60;99.90;;;;;;5022400;28;20238;-82
2023/08/05 12:40:56;;;;;;;8.32;7.53;;;20.50;99.90;;;;;;5014217;28;20298;-84
2023/08/05 12:43:23;;;;;;;8.55;7.65;;;20.50;99.90;;;;;;4992527;28;20212;-80
2023/08/05 12:45:51;;;;;;;8.32;7.18;;;20.50;99.90;;;;;;5007939;28;20209;-80
2023/08/05 12:48:19;;;;;;;9.40;7.18;;;20.50;99.90;;;;;;5008246;28;20220;-81
2023/08/05 12:50:50;;;;;;;8.02;7.22;;;20.40;99.90;;;;;;5017682;28;20560;-80
2023/08/05 12:53:17;;;;;;;7.70;7.00;;;20.40;99.90;;;;;;5011561;28;20207;-80
2023/08/05 12:56:11;;;;;;;8.40;7.60;;;20.40;99.90;;;;;;4998576;28;20204;-81